Flight Track Log - Related Links

Times and Time Zones

All times are in EDT time to prevent confusion due to time zone crossing. See the UAL4336 flight status page for this flight to view local times or setup timezone preferences in your user account.

Time Position Orientation Groundspeed Altitude Reporting Facility
EDT Latitude Longitude Course Direction KTS MPH feet Rate Location/Type
Thu 08:11:36 AM 29.9639 -95.3433 69° East 150 173 1,100  Level Houston Center
Thu 08:12:43 AM 29.9281 -95.2969 132° Southeast 199 229 3,400 1,631 Climbing Houston Center
Thu 08:13:19 AM 29.9136 -95.2742 126° Southeast 191 220 3,900 655 Climbing Houston Center
Thu 08:13:38 AM 29.8894 -95.2414 130° Southeast 261 300 4,000 984 Climbing Houston Center
Thu 08:14:00 AM 30.0115 -94.9917 90° East  Level Estimated
Thu 08:14:20 AM 29.8636 -95.1997 126° Southeast 238 274 4,900  Level Houston Center
Thu 08:14:39 AM 29.8497 -95.1764 124° Southeast 254 292 5,500 2,516 Climbing Houston Center
Thu 08:15:00 AM 29.8167 -94.9436 90° East  Level FlightAware Approximate
Thu 08:15:22 AM 29.8233 -95.1314 124° Southeast 250 288 7,500  Level Houston Center
Thu 08:15:34 AM 29.8231 -95.1147 91° East 257 296 8,200 2,557 Climbing Houston Center
Thu 08:16:00 AM 29.8498 -94.8339 69° East  Level FlightAware Approximate
Thu 08:16:23 AM 29.8208 -95.0436 92° East 271 312 10,100  Level Houston Center
Thu 08:16:35 AM 29.8183 -95.0214 97° East 277 319 10,500 968 Climbing Houston Center
Thu 08:17:25 AM 29.8281 -94.9467 81° East 312 359 11,100 757 Climbing Houston Center
Thu 08:18:26 AM 29.8556 -94.8383 74° East 349 402 11,900 1,131 Climbing Houston Center
Thu 08:19:27 AM 29.8864 -94.7250 73° East 367 422 13,400 1,463 Climbing Houston Center
Thu 08:20:29 AM 29.9153 -94.6125 73° East 367 422 14,900 1,452 Climbing Houston Center
Thu 08:21:31 AM 29.9456 -94.4986 73° East 368 423 16,400 1,512 Climbing Houston Center
Thu 08:22:32 AM 29.9808 -94.3647 73° East 369 425 18,000 1,268 Climbing Houston Center
Thu 08:23:34 AM 30.0036 -94.2489 77° East 371 427 19,000 488 Climbing Houston Center
Thu 08:24:35 AM 30.0183 -94.1228 82° East 393 452 19,000  Level Houston Center
Thu 08:25:37 AM 30.0339 -93.9894 82° East 417 480 19,000  Level Houston Center
Thu 08:26:38 AM 30.0511 -93.8556 82° East 421 484 19,000  Level Houston Center
Thu 08:27:40 AM 30.0678 -93.7239 82° East 421 484 19,000  Level Houston Center
Thu 08:28:42 AM 30.0822 -93.5939 83° East 416 479 19,000  Level Houston Center
Thu 08:29:43 AM 30.1022 -93.4394 81° East 414 476 19,000  Level Houston Center
Thu 08:30:45 AM 30.1175 -93.3092 82° East 414 476 19,000  Level Houston Center
Thu 08:31:47 AM 30.1342 -93.1789 82° East 414 476 19,000  Level Houston Center
Thu 08:32:49 AM 30.1458 -93.0467 84° East 415 478 19,000  Level Houston Center
Thu 08:33:50 AM 30.1536 -92.8989 86° East 415 478 19,000 -780 Level Houston Center
Thu 08:34:52 AM 30.1603 -92.7581 87° East 410 472 17,400 -2,177 Descending Houston Center
Thu 08:35:54 AM 30.1661 -92.6383 87° East 382 440 14,500 -2,952 Descending Houston Center
Thu 08:36:56 AM 30.1722 -92.5072 87° East 382 440 11,300 -2,274 Descending Houston Center
Thu 08:37:58 AM 30.1761 -92.3994 88° East 340 391 9,800 -1,854 Descending Houston Center
Thu 08:38:59 AM 30.1453 -92.3161 113° Southeast 266 306 7,500 -2,683 Descending Houston Center
Thu 08:40:01 AM 30.1153 -92.2381 114° Southeast 254 292 4,300 -2,661 Descending Houston Center
Thu 08:41:03 AM 30.0997 -92.1683 104° East 237 273 2,000 -1,258 Descending Houston Center
Thu 08:42:05 AM 30.1236 -92.0931 70° East 232 267 1,700 -339 Descending Houston Center
Thu 08:43:07 AM 30.1469 -92.0397 63° Northeast 189 217 1,300 -629 Descending Houston Center
Thu 08:44:09 AM 30.1789 -92.0100 39° Northeast 142 163 400 -871 Descending Houston Center

Login

Don't have an account? Register now (free) for customized features, flight alerts, and more!